Airfield :
LOGIN :

Register | Disclaimer

   EN    FR    IT 

 










Legend :    VFR   Marginal VFR   IFR   Intensive IFR   Very Intensive IFR
Visi :
Ceiling :
>= 8 km
>= 3000ft
5 to 8 km
1000 to 3000 ft
1500m to 5 km
500 to 1000 ft
800 to 1500m
200 to 500 ft
< 800m
< 200 ft
Symbols :   Thunderstorms  Fog  Heavy snow  Heavy precipitations  Wind > 20 kt
SIGMETs :     Misc.  Thunderstorms  Icing  Turbulence  Mountain Waves  Volcanic Ashes






- Airport Elevation : 468 ft
- IATA code : GRO


LEGE - Girona Costa Brava

CURRENT METAR :
  • 181200Z 21005KT CAVOK 23/12 Q1014

EXPIRED METARs :
  • 181130Z 15003KT 070V240 CAVOK 21/12 Q1014
  • 181100Z VRB02KT CAVOK 20/12 Q1015
  • 181030Z VRB02KT CAVOK 19/11 Q1015
  • 181000Z 21003KT 160V280 CAVOK 18/12 Q1015

TAF TAF LEGE
Valid from the 18 at 12:00 until the 19 at 12:00 UTC


181100Z 1812/1912 20010KT 9999 FEW020 TX26/1813Z TN14/1906Z
BECMG 1817/1819 VRB03KT
BECMG 1909/1911 20010KT



MET'MAP, your aeronautical weather chart ! - Copyright ORBIFLY December 2007 - Disclaimer

ORBIFLY MET'MAP TEAM :

Programming & Development : Alexandra Zaïnal
Concept & Development : Baudouin d'Aumeries
Co-Development & Prog : Marc-Olivier Méhu
Technical & hardware support : Manuel Goepfert

Contact : metmap@orbifly.com




SOURCES & CREDITS :

   NOAA